Time;durP1;ratioP1;P1;durP2;ratioP2;P2;SDS_P1;SDS_P2;PMS_P1;PMS_P2;Temp;Humidity;BMP_temperature;BMP_pressure;BME280_temperature;BME280_humidity;BME280_pressure;Samples;Min_cycle;Max_cycle;Signal;HPM_P1;HPM_P2
2022/03/31 00:01:00;;;;;;;6.30;4.50;;;;;;;4.37;67.61;100059.28;5097335;27;20044;-65
2022/03/31 00:03:27;;;;;;;7.05;4.57;;;;;;;4.33;67.80;100064.53;5108469;28;20044;-65
2022/03/31 00:05:54;;;;;;;7.55;5.10;;;;;;;4.31;68.00;100061.13;5106554;28;20490;-66
2022/03/31 00:08:25;;;;;;;6.15;4.95;;;;;;;4.30;68.10;100059.41;5102635;28;20040;-66
2022/03/31 00:10:55;;;;;;;7.53;5.03;;;;;;;4.28;68.26;100055.94;5100850;28;20127;-64
2022/03/31 00:13:29;;;;;;;7.65;4.80;;;;;;;4.27;68.79;100056.81;5110929;28;20043;-65
2022/03/31 00:15:58;;;;;;;9.27;5.82;;;;;;;4.24;68.55;100053.41;5096636;28;20169;-66
2022/03/31 00:18:29;;;;;;;7.63;5.30;;;;;;;4.22;69.12;100047.34;5105682;28;20508;-66
2022/03/31 00:33:02;;;;;;;12.95;7.55;;;;;;;4.10;70.32;100040.59;5111281;28;20042;-67
2022/03/31 00:35:30;;;;;;;11.40;7.30;;;;;;;4.08;70.20;100034.53;5108059;27;20796;-68
2022/03/31 00:37:58;;;;;;;12.35;7.10;;;;;;;4.07;70.37;100041.50;5111553;27;20766;-68
2022/03/31 00:40:27;;;;;;;13.05;7.55;;;;;;;4.06;70.27;100028.47;5109601;28;20476;-68
2022/03/31 00:42:58;;;;;;;13.52;7.93;;;;;;;4.04;70.72;100018.94;5101587;27;20127;-68
2022/03/31 00:45:51;;;;;;;14.52;8.07;;;;;;;4.06;70.38;100031.09;5107687;28;20048;-67
2022/03/31 00:48:20;;;;;;;15.38;7.72;;;;;;;4.04;70.61;100024.16;5102140;28;20140;-65
2022/03/31 00:50:48;;;;;;;15.02;8.02;;;;;;;4.06;71.04;100020.66;5103539;28;20040;-66
2022/03/31 00:53:17;;;;;;;13.95;8.50;;;;;;;4.06;70.91;100034.59;5105976;27;20067;-66
2022/03/31 00:56:01;;;;;;;13.07;9.07;;;;;;;4.06;70.65;100031.97;5102386;28;20066;-66
2022/03/31 00:58:31;;;;;;;14.77;8.95;;;;;;;4.08;70.67;100035.38;5103725;27;20053;-65
2022/03/31 01:01:01;;;;;;;16.52;10.05;;;;;;;4.04;71.09;100026.75;5101041;28;20101;-66
2022/03/31 01:03:29;;;;;;;17.20;10.05;;;;;;;4.02;71.40;100022.47;5111366;28;20044;-66
2022/03/31 01:05:58;;;;;;;15.40;9.60;;;;;;;4.00;71.22;100025.09;5108998;28;20458;-65
2022/03/31 01:08:25;;;;;;;16.38;10.95;;;;;;;4.00;71.26;100013.78;5104597;27;20513;-65
2022/03/31 01:10:53;;;;;;;19.25;10.82;;;;;;;3.99;71.44;100014.69;5102193;28;20044;-66
2022/03/31 01:13:20;;;;;;;18.75;10.77;;;;;;;3.96;71.50;100006.94;5111471;27;20043;-66
2022/03/31 01:15:48;;;;;;;18.90;11.60;;;;;;;3.95;71.61;100013.03;5109503;28;20042;-66
2022/03/31 01:18:15;;;;;;;21.75;12.93;;;;;;;3.95;71.53;100003.44;5110424;28;20122;-67
2022/03/31 01:20:42;;;;;;;20.73;12.23;;;;;;;3.95;71.54;100006.03;5097434;27;20045;-67
2022/03/31 01:23:12;;;;;;;21.42;11.73;;;;;;;3.94;72.00;100012.16;5106536;27;20071;-65
2022/03/31 01:25:41;;;;;;;19.85;12.48;;;;;;;3.92;71.61;100003.47;5093442;28;20043;-66
2022/03/31 01:28:10;;;;;;;22.33;12.57;;;;;;;3.92;71.71;100007.84;5106912;28;20124;-66
2022/03/31 01:30:38;;;;;;;22.48;12.23;;;;;;;3.95;71.71;100006.03;5101784;27;20575;-66
2022/03/31 01:33:09;;;;;;;22.98;13.80;;;;;;;3.95;71.65;100003.44;5110761;28;20048;-67
2022/03/31 01:35:37;;;;;;;24.40;14.40;;;;;;;3.98;71.54;100002.53;5101810;27;20056;-66
2022/03/31 01:38:04;;;;;;;23.70;14.05;;;;;;;3.99;71.59;99999.91;5097774;28;20145;-66
2022/03/31 01:40:34;;;;;;;24.67;13.68;;;;;;;3.98;71.44;99995.56;5095162;28;20094;-66
2022/03/31 01:43:02;;;;;;;22.10;12.60;;;;;;;3.99;71.42;99997.28;5110650;27;20101;-66
2022/03/31 01:45:29;;;;;;;22.10;13.45;;;;;;;3.99;71.44;99993.81;5101862;27;20123;-66
2022/03/31 01:48:03;;;;;;;22.63;13.73;;;;;;;3.99;71.41;99986.88;5109673;27;20032;-66
2022/03/31 01:50:31;;;;;;;20.08;13.13;;;;;;;3.97;71.31;99982.56;5109792;27;20847;-65
2022/03/31 01:52:58;;;;;;;21.08;12.60;;;;;;;3.95;71.23;99979.97;5105996;27;20085;-67
2022/03/31 01:55:25;;;;;;;18.73;12.32;;;;;;;3.92;71.11;99985.22;5105625;28;20044;-65
2022/03/31 01:57:53;;;;;;;19.00;11.43;;;;;;;3.88;71.25;99979.19;5098106;27;20766;-66
2022/03/31 02:00:20;;;;;;;18.30;10.63;;;;;;;3.83;71.36;99982.78;5101290;27;20089;-66
2022/03/31 02:02:47;;;;;;;17.75;10.32;;;;;;;3.81;71.27;99981.97;5100519;28;20089;-65
2022/03/31 02:05:14;;;;;;;15.90;8.98;;;;;;;3.77;71.50;99981.13;5104688;27;20517;-65
2022/03/31 02:07:42;;;;;;;15.35;8.15;;;;;;;3.75;71.68;99982.03;5102360;28;20064;-66
2022/03/31 02:10:12;;;;;;;12.05;7.50;;;;;;;3.70;71.98;99985.59;5104385;28;20117;-67
2022/03/31 02:12:41;;;;;;;12.63;8.20;;;;;;;3.67;71.94;99987.38;5100681;28;20777;-67
2022/03/31 02:15:12;;;;;;;10.70;7.63;;;;;;;3.66;72.43;99990.88;5103756;27;20036;-67
2022/03/31 02:17:40;;;;;;;10.60;7.18;;;;;;;3.65;72.57;99987.41;5098787;28;20901;-67
2022/03/31 02:20:09;;;;;;;11.10;7.47;;;;;;;3.63;72.35;99981.34;5107608;27;20109;-66
2022/03/31 02:22:36;;;;;;;11.25;7.30;;;;;;;3.60;72.92;99978.81;5093049;27;20036;-66
2022/03/31 02:25:04;;;;;;;14.05;6.85;;;;;;;3.60;72.88;99986.63;5092540;28;20051;-66
2022/03/31 02:27:32;;;;;;;11.02;7.00;;;;;;;3.61;73.15;99983.13;5101972;28;21873;-66
2022/03/31 02:29:59;;;;;;;11.25;6.82;;;;;;;3.63;73.01;99981.34;5104894;27;20068;-66
2022/03/31 02:32:27;;;;;;;12.02;7.60;;;;;;;3.63;73.43;99981.34;5107755;28;20048;-66
2022/03/31 02:34:55;;;;;;;11.63;7.40;;;;;;;3.61;73.33;99977.91;5109356;27;20045;-66
2022/03/31 02:37:22;;;;;;;11.90;7.70;;;;;;;3.62;73.56;99977.00;5109347;28;20052;-66
2022/03/31 02:39:50;;;;;;;11.82;6.38;;;;;;;3.59;74.07;99974.47;5105459;27;20445;-66
2022/03/31 02:42:18;;;;;;;11.07;7.80;;;;;;;3.57;73.93;99974.47;5106095;27;20505;-67
2022/03/31 02:44:45;;;;;;;10.82;7.65;;;;;;;3.56;74.21;99969.28;5099118;28;20067;-66
2022/03/31 02:47:12;;;;;;;12.65;7.65;;;;;;;3.54;74.32;99966.72;5105817;27;20040;-67
2022/03/31 02:49:40;;;;;;;12.63;7.78;;;;;;;3.54;74.52;99963.25;5109630;27;20047;-66
2022/03/31 02:52:13;;;;;;;13.82;7.65;;;;;;;3.52;74.46;99959.78;5110290;27;20045;-66
2022/03/31 02:57:26;;;;;;;12.75;7.55;;;;;;;3.51;74.73;99956.34;5101541;28;20035;-66
2022/03/31 02:59:53;;;;;;;12.40;7.55;;;;;;;3.48;75.09;99955.53;5113460;27;20066;-66
2022/03/31 03:02:20;;;;;;;13.05;8.25;;;;;;;3.45;75.50;99959.06;5109806;28;20051;-65
2022/03/31 03:04:47;;;;;;;13.57;8.40;;;;;;;3.44;75.30;99957.31;5112173;27;20413;-65
2022/03/31 03:07:15;;;;;;;11.35;7.50;;;;;;;3.45;75.31;99960.78;5104242;27;20041;-66
2022/03/31 03:09:42;;;;;;;13.98;8.65;;;;;;;3.43;75.23;99955.59;5105524;28;20532;-65
2022/03/31 03:12:10;;;;;;;12.43;7.65;;;;;;;3.41;75.45;99958.22;5107080;28;20170;-65
2022/03/31 03:14:38;;;;;;;12.88;7.93;;;;;;;3.41;75.80;99950.38;5111219;27;20040;-65
2022/03/31 03:17:06;;;;;;;12.98;7.72;;;;;;;3.42;76.00;99951.28;5101042;28;20528;-66
2022/03/31 03:19:33;;;;;;;13.43;8.50;;;;;;;3.40;75.90;99950.41;5111276;28;20662;-65
2022/03/31 03:22:02;;;;;;;12.70;8.13;;;;;;;3.41;76.00;99946.94;5100143;27;20045;-66
2022/03/31 03:24:29;;;;;;;13.48;8.15;;;;;;;3.43;75.66;99947.78;5097841;28;20051;-67
2022/03/31 03:26:56;;;;;;;15.52;8.93;;;;;;;3.41;75.87;99942.56;5101258;28;20414;-68
2022/03/31 03:29:23;;;;;;;13.32;7.45;;;;;;;3.42;76.07;99944.28;5113762;28;20036;-67
2022/03/31 03:31:52;;;;;;;14.30;8.32;;;;;;;3.42;75.97;99948.66;5101475;27;20047;-66
2022/03/31 03:34:19;;;;;;;16.45;8.52;;;;;;;3.44;75.99;99933.88;5107383;27;20036;-66
2022/03/31 03:36:46;;;;;;;12.93;8.45;;;;;;;3.42;76.01;99944.28;5112943;27;20056;-64
2022/03/31 03:39:14;;;;;;;12.90;8.25;;;;;;;3.38;76.20;99937.44;5104937;28;20040;-65
2022/03/31 03:41:41;;;;;;;16.05;8.38;;;;;;;3.38;76.00;99941.75;5112536;27;20489;-65
2022/03/31 03:44:08;;;;;;;16.25;8.77;;;;;;;3.38;76.33;99945.25;5106095;28;20048;-66
2022/03/31 03:46:35;;;;;;;16.77;8.63;;;;;;;3.36;76.34;99933.09;5109163;28;20068;-65
2022/03/31 03:49:03;;;;;;;17.25;8.70;;;;;;;3.35;76.33;99931.41;5111600;28;20078;-65
2022/03/31 03:51:30;;;;;;;14.25;8.30;;;;;;;3.37;76.08;99938.31;5107246;27;20040;-64
2022/03/31 03:53:57;;;;;;;18.45;9.02;;;;;;;3.37;76.20;99933.09;5100687;28;20046;-64
2022/03/31 03:56:24;;;;;;;13.50;8.98;;;;;;;3.39;76.13;99933.06;5110454;27;20048;-64
2022/03/31 03:58:51;;;;;;;17.00;9.52;;;;;;;3.38;76.04;99931.34;5110013;28;20040;-64
2022/03/31 04:01:19;;;;;;;18.67;8.85;;;;;;;3.39;76.35;99933.94;5109935;28;20047;-66
2022/03/31 04:03:46;;;;;;;14.57;9.68;;;;;;;3.41;76.31;99928.69;5099981;28;20094;-68
2022/03/31 04:06:13;;;;;;;14.40;9.35;;;;;;;3.38;76.33;99927.00;5110285;27;20074;-67
2022/03/31 04:08:40;;;;;;;14.98;8.95;;;;;;;3.39;76.38;99926.13;5107530;28;20040;-67
2022/03/31 04:11:08;;;;;;;19.45;8.90;;;;;;;3.39;76.66;99925.25;5106757;27;20048;-66
2022/03/31 04:13:35;;;;;;;16.65;9.48;;;;;;;3.34;76.62;99914.91;5110259;28;20082;-67
2022/03/31 04:16:03;;;;;;;17.35;8.85;;;;;;;3.35;76.76;99913.16;5112694;28;20515;-67
2022/03/31 04:18:31;;;;;;;14.27;8.77;;;;;;;3.36;76.80;99910.53;5114227;28;20124;-67
2022/03/31 04:21:01;;;;;;;14.98;8.82;;;;;;;3.36;76.76;99901.84;5104427;28;20040;-67
2022/03/31 04:23:29;;;;;;;15.45;8.25;;;;;;;3.36;77.00;99899.22;5108020;27;20060;-67
2022/03/31 04:25:56;;;;;;;12.93;8.40;;;;;;;3.33;77.15;99907.13;5110052;27;20040;-67
2022/03/31 04:28:23;;;;;;;16.05;9.25;;;;;;;3.29;77.07;99908.91;5106162;28;20047;-67
2022/03/31 04:30:51;;;;;;;15.63;9.50;;;;;;;3.26;77.03;99901.13;5104205;27;20040;-65
2022/03/31 04:33:18;;;;;;;15.38;8.52;;;;;;;3.27;77.09;99908.06;5103303;27;20123;-66
2022/03/31 04:35:45;;;;;;;14.45;8.95;;;;;;;3.25;77.17;99902.88;5101316;27;20056;-66
2022/03/31 04:38:12;;;;;;;18.90;8.10;;;;;;;3.25;77.53;99905.50;5104606;28;20047;-66
2022/03/31 04:40:39;;;;;;;14.70;9.30;;;;;;;3.21;77.74;99913.34;5102488;28;20497;-66
2022/03/31 04:43:07;;;;;;;13.35;8.55;;;;;;;3.22;77.61;99918.56;5108372;27;20071;-67
2022/03/31 04:45:34;;;;;;;13.10;8.00;;;;;;;3.25;77.71;99922.84;5106470;28;20040;-67
2022/03/31 04:48:02;;;;;;;10.48;7.50;;;;;;;3.24;77.88;99923.72;5102089;27;20040;-67
2022/03/31 04:50:29;;;;;;;15.05;8.35;;;;;;;3.22;78.17;99925.50;5107428;28;20048;-67
2022/03/31 04:52:56;;;;;;;12.07;7.72;;;;;;;3.23;78.70;99922.00;5103752;28;20036;-67
2022/03/31 04:55:25;;;;;;;10.60;6.63;;;;;;;3.30;78.50;99925.38;5105871;27;20849;-67
2022/03/31 04:57:52;;;;;;;12.90;6.43;;;;;;;3.29;78.05;99927.16;5112571;28;20127;-66
2022/03/31 05:00:20;;;;;;;9.65;6.35;;;;;;;3.20;77.54;99928.13;5105319;28;20047;-67
2022/03/31 05:02:47;;;;;;;10.13;6.80;;;;;;;3.09;77.50;99924.81;5112060;28;20074;-67
2022/03/31 05:05:14;;;;;;;10.68;7.03;;;;;;;3.03;77.85;99932.72;5108784;28;20040;-66
2022/03/31 05:07:41;;;;;;;7.57;5.88;;;;;;;2.93;77.77;99935.47;5114919;27;20056;-67
2022/03/31 05:10:09;;;;;;;17.42;6.60;;;;;;;2.84;78.17;99929.50;5102475;27;20048;-66
2022/03/31 05:12:36;;;;;;;14.88;6.40;;;;;;;2.81;78.31;99933.00;5115171;27;20037;-66
2022/03/31 05:15:04;;;;;;;9.27;5.75;;;;;;;2.75;78.30;99926.13;5111842;27;20426;-66
2022/03/31 05:17:35;;;;;;;8.30;6.10;;;;;;;2.69;78.45;99934.03;5108154;27;20123;-66
2022/03/31 05:20:08;;;;;;;7.68;5.82;;;;;;;2.61;78.71;99934.13;5103693;27;20040;-66
2022/03/31 05:22:38;;;;;;;9.20;6.03;;;;;;;2.53;78.82;99932.47;5102655;27;20048;-67
2022/03/31 05:25:09;;;;;;;9.02;5.30;;;;;;;2.52;79.32;99929.03;5108695;27;20859;-66
2022/03/31 05:27:45;;;;;;;9.02;5.53;;;;;;;2.48;79.07;99930.81;5109299;27;20042;-67
2022/03/31 05:30:17;;;;;;;7.25;4.68;;;;;;;2.42;79.37;99933.47;5098075;28;20770;-65
2022/03/31 05:32:48;;;;;;;7.88;5.47;;;;;;;2.33;79.74;99923.16;5092435;28;20472;-67
2022/03/31 05:35:18;;;;;;;8.27;5.45;;;;;;;2.32;80.07;99924.91;5101972;28;20055;-67
2022/03/31 05:37:46;;;;;;;11.82;6.05;;;;;;;2.24;80.47;99920.66;5055373;28;20061;-66
2022/03/31 05:40:16;;;;;;;8.38;5.60;;;;;;;2.19;80.66;99930.28;5065510;28;20120;-66
2022/03/31 05:42:43;;;;;;;9.98;6.70;;;;;;;2.14;80.53;99928.56;5061512;28;20049;-66
2022/03/31 05:45:13;;;;;;;8.40;6.20;;;;;;;2.10;81.03;99932.06;5062542;28;20037;-65
2022/03/31 05:47:43;;;;;;;11.20;5.85;;;;;;;2.04;81.10;99936.47;5063516;28;20045;-67
2022/03/31 05:50:12;;;;;;;9.10;5.60;;;;;;;2.00;81.42;99939.09;5067692;28;20037;-66
2022/03/31 05:52:42;;;;;;;12.65;6.03;;;;;;;1.95;81.95;99950.44;5066471;28;20589;-66
2022/03/31 05:55:15;;;;;;;11.63;6.20;;;;;;;1.91;81.72;99947.00;5064291;28;20056;-66
2022/03/31 05:57:43;;;;;;;10.32;6.82;;;;;;;1.86;82.04;99952.25;5066622;28;20045;-67
2022/03/31 06:00:18;;;;;;;9.40;6.65;;;;;;;1.84;82.34;99947.91;5063998;28;20495;-67
2022/03/31 06:02:46;;;;;;;10.57;6.70;;;;;;;1.83;82.61;99939.25;5065025;28;20046;-67
2022/03/31 06:05:18;;;;;;;10.23;6.53;;;;;;;1.81;82.64;99935.81;5059989;28;20474;-68
2022/03/31 06:07:46;;;;;;;10.90;6.75;;;;;;;1.81;82.87;99940.16;5071490;28;20041;-70
2022/03/31 06:10:14;;;;;;;10.15;6.13;;;;;;;1.78;83.13;99933.22;5070566;28;20041;-67
2022/03/31 06:12:41;;;;;;;12.75;6.10;;;;;;;1.75;83.43;99930.66;5071083;28;20481;-68
2022/03/31 06:15:09;;;;;;;8.35;5.90;;;;;;;1.76;82.98;99936.72;5070735;28;20056;-68
2022/03/31 06:17:41;;;;;;;9.23;6.28;;;;;;;1.71;83.74;99923.75;5070309;28;20447;-69
2022/03/31 06:20:10;;;;;;;11.43;6.28;;;;;;;1.71;83.64;99923.75;5071910;28;20041;-67
2022/03/31 06:22:38;;;;;;;10.73;6.60;;;;;;;1.73;83.37;99931.56;5071278;28;20072;-67
2022/03/31 06:25:12;;;;;;;7.95;5.80;;;;;;;1.69;83.79;99931.59;5071327;28;20472;-67
2022/03/31 06:27:39;;;;;;;6.75;5.18;;;;;;;1.66;83.60;99946.34;5070734;28;20111;-68
2022/03/31 06:30:07;;;;;;;10.35;5.80;;;;;;;1.63;83.49;99944.59;5075048;28;20045;-67
2022/03/31 06:32:34;;;;;;;7.80;5.70;;;;;;;1.61;83.68;99941.19;5075274;28;20537;-68
2022/03/31 06:35:02;;;;;;;8.05;5.90;;;;;;;1.64;83.90;99941.13;5075336;28;20044;-66
2022/03/31 06:37:29;;;;;;;8.52;5.38;;;;;;;1.63;83.72;99942.00;5093767;28;20059;-66
2022/03/31 06:39:57;;;;;;;7.68;5.90;;;;;;;1.64;83.59;99940.28;5109043;28;20040;-67
2022/03/31 06:42:24;;;;;;;7.85;6.15;;;;;;;1.61;83.94;99946.38;5114076;27;20044;-68
2022/03/31 06:44:56;;;;;;;7.20;4.88;;;;;;;1.58;83.49;99950.75;5113097;28;20040;-68
2022/03/31 06:47:44;;;;;;;7.90;5.43;;;;;;;1.59;83.91;99949.84;5095318;28;20045;-67
2022/03/31 06:50:13;;;;;;;8.38;5.72;;;;;;;1.54;83.35;99948.16;5095244;28;20047;-67
2022/03/31 06:52:40;;;;;;;8.02;5.38;;;;;;;1.48;83.85;99950.78;5094989;28;20051;-68
2022/03/31 06:55:08;;;;;;;10.65;6.40;;;;;;;1.49;83.77;99956.84;5110703;28;20104;-66
2022/03/31 06:57:35;;;;;;;11.32;6.47;;;;;;;1.51;84.30;99955.13;5101034;27;20044;-67
2022/03/31 07:00:07;;;;;;;11.30;8.35;;;;;;;1.52;84.17;99962.03;5100570;28;20646;-67
2022/03/31 07:02:34;;;;;;;7.75;5.25;;;;;;;1.51;83.93;99957.72;5116174;27;20044;-66
2022/03/31 07:05:02;;;;;;;8.18;5.20;;;;;;;1.46;84.44;99962.94;5116605;27;20044;-66
2022/03/31 07:07:29;;;;;;;7.47;3.63;;;;;;;1.39;83.51;99962.13;5116590;27;20531;-66
2022/03/31 07:09:57;;;;;;;4.15;3.40;;;;;;;1.30;83.40;99958.69;5116357;28;20540;-66
2022/03/31 07:12:24;;;;;;;4.80;3.53;;;;;;;1.19;83.41;99949.25;5102807;27;20044;-65
2022/03/31 07:14:51;;;;;;;4.22;3.58;;;;;;;1.10;83.61;99949.31;5095224;28;20044;-65
2022/03/31 07:17:18;;;;;;;4.78;3.70;;;;;;;1.04;83.58;99955.38;5094902;28;20356;-65
2022/03/31 07:19:45;;;;;;;4.90;3.53;;;;;;;0.97;83.57;99956.31;5095302;28;20098;-65
2022/03/31 07:22:18;;;;;;;4.78;4.00;;;;;;;0.92;84.10;99950.25;5095190;28;20562;-66
2022/03/31 07:24:45;;;;;;;5.47;4.07;;;;;;;0.85;84.33;99953.75;5095061;28;20050;-66
2022/03/31 07:27:12;;;;;;;5.35;4.00;;;;;;;0.80;84.44;99943.41;5094593;28;20052;-66
2022/03/31 07:29:39;;;;;;;4.88;3.72;;;;;;;0.76;84.78;99942.56;5095838;28;20040;-65
2022/03/31 07:32:07;;;;;;;5.65;4.13;;;;;;;0.72;84.77;99939.97;5102945;28;20029;-65
2022/03/31 07:34:34;;;;;;;6.82;4.88;;;;;;;0.67;85.00;99933.94;5094736;28;20090;-65
2022/03/31 07:37:02;;;;;;;7.03;5.05;;;;;;;0.63;85.36;99937.44;5095575;28;20083;-64
2022/03/31 07:39:29;;;;;;;9.00;5.63;;;;;;;0.61;85.26;99943.47;5114762;27;20060;-65
2022/03/31 07:41:56;;;;;;;7.65;5.50;;;;;;;0.58;85.36;99945.22;5114943;27;20159;-65
2022/03/31 07:44:23;;;;;;;8.70;5.68;;;;;;;0.58;85.44;99942.63;5115122;27;20126;-64
2022/03/31 07:46:51;;;;;;;10.30;6.55;;;;;;;0.56;85.56;99937.44;5115218;27;20040;-64
2022/03/31 07:49:19;;;;;;;9.27;6.30;;;;;;;0.52;85.53;99938.34;5113875;27;20052;-65
2022/03/31 07:51:46;;;;;;;10.05;6.50;;;;;;;0.51;85.72;99939.19;5114682;28;20532;-63
2022/03/31 07:54:13;;;;;;;10.68;6.70;;;;;;;0.49;85.59;99932.28;5114915;27;20043;-65
2022/03/31 07:56:40;;;;;;;10.55;6.65;;;;;;;0.45;85.77;99932.31;5103774;27;20196;-64
2022/03/31 07:59:07;;;;;;;10.68;7.07;;;;;;;0.45;86.02;99934.91;5101723;28;20037;-64
2022/03/31 08:01:34;;;;;;;11.02;7.45;;;;;;;0.43;85.75;99934.03;5113023;28;20044;-65
2022/03/31 08:04:03;;;;;;;11.10;6.90;;;;;;;0.42;85.94;99942.69;5113395;28;20500;-64
2022/03/31 08:06:31;;;;;;;13.60;7.25;;;;;;;0.43;85.93;99940.97;5114661;27;20040;-64
2022/03/31 08:08:58;;;;;;;9.82;5.97;;;;;;;0.46;86.05;99940.94;5105034;27;20040;-63
2022/03/31 08:11:25;;;;;;;7.32;5.60;;;;;;;0.46;86.06;99938.34;5104266;28;20518;-64
2022/03/31 08:13:52;;;;;;;8.65;6.10;;;;;;;0.47;86.26;99937.47;5102910;28;20112;-64
2022/03/31 08:16:19;;;;;;;9.00;5.65;;;;;;;0.49;86.23;99938.34;5101816;28;20123;-64
2022/03/31 08:18:47;;;;;;;8.02;5.75;;;;;;;0.49;86.26;99937.47;5102237;28;20039;-64
2022/03/31 08:21:14;;;;;;;8.15;5.35;;;;;;;0.48;86.17;99935.75;5102595;27;20043;-64
2022/03/31 08:23:41;;;;;;;7.03;4.88;;;;;;;0.46;86.28;99944.41;5104022;28;20505;-64
2022/03/31 08:26:08;;;;;;;6.97;4.80;;;;;;;0.49;86.28;99942.69;5101953;28;20043;-64
2022/03/31 08:28:36;;;;;;;5.30;4.13;;;;;;;0.50;86.48;99939.22;5105096;28;20102;-64
2022/03/31 08:31:03;;;;;;;6.85;3.97;;;;;;;0.50;86.56;99947.00;5103832;27;20553;-64
2022/03/31 08:33:31;;;;;;;6.07;3.67;;;;;;;0.51;86.52;99946.13;5105991;28;20492;-65
2022/03/31 08:35:58;;;;;;;5.63;4.30;;;;;;;0.52;86.63;99953.00;5101944;28;20055;-63
2022/03/31 08:38:25;;;;;;;4.72;3.38;;;;;;;0.53;86.67;99944.38;5103719;28;20119;-64
2022/03/31 08:40:54;;;;;;;6.28;3.65;;;;;;;0.54;86.58;99948.69;5102960;28;20055;-64
2022/03/31 08:43:23;;;;;;;4.90;3.60;;;;;;;0.56;86.53;99949.56;5111300;28;20672;-65
2022/03/31 08:45:55;;;;;;;3.97;3.28;;;;;;;0.56;86.66;99953.00;5110128;27;20048;-65
2022/03/31 08:48:32;;;;;;;4.10;3.35;;;;;;;0.57;86.51;99956.47;5112376;28;20047;-64
2022/03/31 08:51:00;;;;;;;4.85;3.13;;;;;;;0.61;86.59;99946.06;5092434;28;20047;-64
2022/03/31 08:53:27;;;;;;;3.42;2.88;;;;;;;0.63;86.39;99953.84;5093839;28;20037;-63
2022/03/31 08:55:54;;;;;;;4.72;2.88;;;;;;;0.64;86.58;99952.97;5093348;28;20045;-64
2022/03/31 08:58:21;;;;;;;5.65;2.78;;;;;;;0.67;86.66;99950.38;5093280;28;20514;-64
2022/03/31 09:00:48;;;;;;;4.07;2.50;;;;;;;0.69;86.62;99948.66;5093522;28;20036;-64
2022/03/31 09:03:16;;;;;;;3.58;2.70;;;;;;;0.72;86.53;99952.97;5092765;28;20041;-63
2022/03/31 09:05:49;;;;;;;3.85;2.90;;;;;;;0.73;86.31;99952.94;5073096;28;20041;-64
2022/03/31 09:08:18;;;;;;;4.18;2.80;;;;;;;0.77;86.45;99952.06;5082116;28;20095;-64
2022/03/31 09:10:49;;;;;;;4.78;3.20;;;;;;;0.82;86.20;99952.03;5093453;28;20569;-64
2022/03/31 09:13:31;;;;;;;3.35;2.72;;;;;;;0.89;86.29;99955.47;5093332;28;20128;-64
2022/03/31 09:16:11;;;;;;;3.78;3.25;;;;;;;0.95;85.78;99958.03;5087818;28;20562;-65
2022/03/31 09:18:40;;;;;;;4.35;2.97;;;;;;;0.99;85.48;99953.69;5072477;28;20055;-64
2022/03/31 09:21:10;;;;;;;3.10;2.75;;;;;;;1.02;85.62;99961.47;5073084;28;20048;-64
2022/03/31 09:23:46;;;;;;;5.10;3.00;;;;;;;1.02;85.49;99954.53;5073135;28;20091;-64
2022/03/31 09:26:17;;;;;;;4.45;2.95;;;;;;;1.00;85.71;99955.41;5072656;28;20048;-64
2022/03/31 09:28:46;;;;;;;5.47;3.50;;;;;;;1.04;85.49;99954.53;5084799;28;20099;-65
2022/03/31 09:31:26;;;;;;;5.30;3.03;;;;;;;1.05;85.91;99961.47;5079785;28;20081;-65
2022/03/31 09:33:57;;;;;;;5.88;3.33;;;;;;;1.05;85.66;99964.91;5085725;28;20503;-64
2022/03/31 09:36:39;;;;;;;4.88;3.55;;;;;;;1.08;85.77;99966.63;5076502;28;20510;-64
2022/03/31 09:39:13;;;;;;;4.80;3.50;;;;;;;1.09;85.71;99963.16;5078777;28;20130;-65
2022/03/31 09:41:42;;;;;;;3.92;3.10;;;;;;;1.15;85.74;99959.66;5091953;28;20091;-65
2022/03/31 09:44:22;;;;;;;5.93;3.10;;;;;;;1.18;85.54;99965.69;5084693;28;20041;-65
2022/03/31 09:46:51;;;;;;;5.45;3.30;;;;;;;1.19;85.27;99957.03;5088349;28;20041;-66
2022/03/31 09:49:26;;;;;;;3.78;3.00;;;;;;;1.22;85.45;99958.78;5072183;28;20095;-66
2022/03/31 09:51:57;;;;;;;4.15;3.10;;;;;;;1.20;85.25;99963.09;5072504;28;20344;-66
2022/03/31 09:54:29;;;;;;;3.22;2.78;;;;;;;1.18;85.37;99959.66;5077745;28;20040;-65
2022/03/31 09:57:02;;;;;;;3.85;3.13;;;;;;;1.16;85.21;99959.66;5092076;28;20841;-65
2022/03/31 09:59:34;;;;;;;4.35;3.20;;;;;;;1.15;85.39;99955.34;5092616;28;20041;-65
2022/03/31 10:02:02;;;;;;;3.28;2.80;;;;;;;1.17;85.53;99958.78;5075150;28;20045;-65
2022/03/31 10:04:31;;;;;;;3.50;3.10;;;;;;;1.19;85.38;99951.00;5074930;28;20568;-65
2022/03/31 10:07:00;;;;;;;4.75;3.28;;;;;;;1.21;85.25;99954.44;5091529;28;20106;-65
2022/03/31 10:09:27;;;;;;;4.22;3.40;;;;;;;1.27;85.43;99953.56;5089202;28;20048;-66
2022/03/31 10:12:26;;;;;;;5.57;3.47;;;;;;;1.31;85.51;99958.72;5092161;28;20046;-66
2022/03/31 10:15:08;;;;;;;3.97;2.90;;;;;;;1.36;85.75;99961.28;5073162;28;20410;-65
2022/03/31 10:17:36;;;;;;;4.70;3.55;;;;;;;1.41;85.80;99954.31;5085216;28;20049;-65
2022/03/31 10:20:15;;;;;;;7.97;3.50;;;;;;;1.49;85.55;99957.72;5075483;28;20048;-65
2022/03/31 10:25:47;;;;;;;5.35;3.40;;;;;;;1.67;84.98;99954.13;5081784;28;20045;-66
2022/03/31 10:28:21;;;;;;;6.22;3.58;;;;;;;1.70;84.57;99961.91;5081966;28;20572;-66
2022/03/31 10:31:07;;;;;;;6.40;3.28;;;;;;;1.79;84.51;99960.09;5072386;28;20063;-65
2022/03/31 10:33:39;;;;;;;5.00;3.58;;;;;;;1.80;84.36;99951.41;5082449;28;20092;-65
2022/03/31 10:36:13;;;;;;;3.28;2.78;;;;;;;1.84;83.86;99953.09;5088318;28;20502;-66
2022/03/31 10:38:54;;;;;;;3.88;3.40;;;;;;;1.84;83.68;99953.09;5080101;28;20036;-65
2022/03/31 10:41:32;;;;;;;4.38;3.50;;;;;;;1.88;84.04;99949.63;5089336;28;21015;-65
2022/03/31 10:44:24;;;;;;;4.43;3.33;;;;;;;1.94;84.13;99946.09;5086177;28;20065;-66
2022/03/31 10:47:06;;;;;;;4.78;3.22;;;;;;;2.01;84.25;99959.03;5075619;28;20521;-66
2022/03/31 10:49:35;;;;;;;4.32;3.58;;;;;;;2.10;84.17;99947.66;5072773;28;20048;-66
2022/03/31 10:52:19;;;;;;;4.38;3.53;;;;;;;2.15;83.60;99943.28;5076943;28;20049;-66
2022/03/31 10:54:47;;;;;;;3.28;2.92;;;;;;;2.19;83.82;99936.31;5075618;28;20598;-66
2022/03/31 10:57:17;;;;;;;4.00;3.08;;;;;;;2.19;83.23;99936.31;5071792;28;20037;-65
2022/03/31 10:59:49;;;;;;;3.58;3.13;;;;;;;2.16;83.49;99933.75;5089398;28;20037;-66
2022/03/31 11:02:22;;;;;;;3.75;3.20;;;;;;;2.16;83.29;99926.81;5085695;28;20047;-66
2022/03/31 11:04:55;;;;;;;4.30;3.30;;;;;;;2.23;83.73;99922.41;5076183;28;20084;-65
2022/03/31 11:07:26;;;;;;;5.03;3.60;;;;;;;2.35;83.23;99928.34;5090036;28;20492;-65
2022/03/31 11:10:08;;;;;;;3.95;3.13;;;;;;;2.43;82.81;99921.34;5092073;28;20485;-66
2022/03/31 11:12:37;;;;;;;6.20;3.75;;;;;;;2.49;82.78;99916.91;5073666;28;20041;-66
2022/03/31 11:15:15;;;;;;;4.38;3.80;;;;;;;2.56;83.08;99916.84;5078624;28;20545;-66
2022/03/31 11:17:43;;;;;;;4.68;3.85;;;;;;;2.65;83.24;99921.94;5078826;28;20056;-66
2022/03/31 11:20:21;;;;;;;5.70;3.88;;;;;;;2.65;83.26;99916.72;5074986;28;20037;-66
2022/03/31 11:22:55;;;;;;;5.00;3.90;;;;;;;2.59;82.84;99916.81;5074805;28;20095;-66
2022/03/31 11:25:23;;;;;;;4.63;3.67;;;;;;;2.62;83.10;99914.16;5085802;28;20044;-66
2022/03/31 11:27:52;;;;;;;5.10;3.88;;;;;;;2.56;83.33;99927.25;5094720;28;20045;-66
2022/03/31 11:30:25;;;;;;;5.07;3.80;;;;;;;2.42;83.43;99932.63;5095380;28;20036;-65
2022/03/31 11:32:56;;;;;;;4.90;4.00;;;;;;;2.28;84.26;99931.03;5092209;28;20041;-64
2022/03/31 11:35:29;;;;;;;6.25;4.28;;;;;;;2.20;84.84;99937.16;5094922;28;20119;-65
2022/03/31 11:38:09;;;;;;;5.32;4.35;;;;;;;2.13;85.13;99928.59;5094530;28;20589;-64
2022/03/31 11:40:45;;;;;;;5.45;4.35;;;;;;;2.10;85.25;99932.06;5094349;28;20118;-65
2022/03/31 11:43:17;;;;;;;7.22;4.78;;;;;;;2.12;85.47;99927.72;5094830;28;20033;-65
2022/03/31 11:45:55;;;;;;;6.30;4.40;;;;;;;2.21;85.50;99928.50;5093885;28;20040;-65
2022/03/31 11:48:40;;;;;;;5.55;4.45;;;;;;;2.28;85.28;99922.38;5092662;28;20033;-66
2022/03/31 11:51:09;;;;;;;7.63;4.82;;;;;;;2.28;85.31;99927.56;5094353;28;20044;-65
2022/03/31 11:53:45;;;;;;;6.38;5.10;;;;;;;2.31;85.06;99919.72;5095009;28;20037;-65
2022/03/31 11:56:21;;;;;;;5.15;4.35;;;;;;;2.31;85.43;99928.41;5092927;28;20048;-65
2022/03/31 11:58:53;;;;;;;6.50;4.95;;;;;;;2.25;85.48;99918.03;5094235;28;20048;-66
2022/03/31 12:01:33;;;;;;;8.70;5.43;;;;;;;2.23;85.92;99919.81;5093771;28;20060;-66
2022/03/31 12:04:00;;;;;;;7.07;5.50;;;;;;;2.26;86.22;99917.16;5092657;28;20041;-65
2022/03/31 12:06:32;;;;;;;7.25;5.65;;;;;;;2.31;86.11;99917.09;5090609;28;20524;-65